createdAt,value
2022-12-25T00:00:42.340Z,98783.31
2022-12-25T00:03:09.056Z,98795.50
2022-12-25T00:05:38.856Z,98792.81
2022-12-25T00:08:06.776Z,98802.34
2022-12-25T00:10:33.823Z,98804.97
2022-12-25T00:13:00.561Z,98789.25
2022-12-25T00:15:27.596Z,98790.09
2022-12-25T00:17:54.309Z,98783.06
2022-12-25T00:20:21.045Z,98791.75
2022-12-25T00:22:47.729Z,98801.34
2022-12-25T00:25:14.516Z,98812.09
2022-12-25T00:27:41.284Z,98813.25
2022-12-25T00:30:08.812Z,98811.59
2022-12-25T00:32:37.483Z,98810.94
2022-12-25T00:35:05.619Z,98812.09
2022-12-25T00:37:32.317Z,98805.41
2022-12-25T00:39:59.046Z,98802.84
2022-12-25T00:42:27.014Z,98773.50
2022-12-25T00:44:53.704Z,98796.59
2022-12-25T00:47:20.462Z,98795.72
2022-12-25T00:49:47.327Z,98802.66
2022-12-25T00:52:14.249Z,98806.13
2022-12-25T00:54:40.983Z,98803.69
2022-12-25T00:57:07.769Z,98809.00
2022-12-25T00:59:34.869Z,98818.56
2022-12-25T01:02:22.249Z,98815.84
2022-12-25T01:04:50.761Z,98827.19
2022-12-25T01:07:18.933Z,98829.72
2022-12-25T01:10:04.780Z,98833.38
2022-12-25T01:12:33.602Z,98839.47
2022-12-25T01:15:00.396Z,98837.69
2022-12-25T01:17:27.117Z,98834.00
2022-12-25T01:19:53.908Z,98833.84
2022-12-25T01:22:20.663Z,98837.09
2022-12-25T01:24:47.361Z,98831.66
2022-12-25T01:27:15.128Z,98835.91
2022-12-25T01:29:41.825Z,98841.28
2022-12-25T01:32:08.695Z,98842.31
2022-12-25T01:34:35.935Z,98833.69
2022-12-25T01:37:02.670Z,98840.72
2022-12-25T01:39:29.405Z,98847.75
2022-12-25T01:41:56.636Z,98854.66
2022-12-25T01:44:35.352Z,98845.81
2022-12-25T01:47:05.723Z,98842.22
2022-12-25T01:49:35.748Z,98842.13
2022-12-25T01:52:11.124Z,98847.34
2022-12-25T01:54:50.607Z,98836.06
2022-12-25T01:57:23.550Z,98842.84
2022-12-25T01:59:50.565Z,98850.69
2022-12-25T02:02:17.716Z,98850.78
2022-12-25T02:04:54.282Z,98856.91
2022-12-25T02:07:23.977Z,98846.75
2022-12-25T02:09:51.776Z,98840.72
2022-12-25T02:12:32.893Z,98837.31
2022-12-25T02:15:06.025Z,98828.56
2022-12-25T02:17:41.720Z,98828.53
2022-12-25T02:20:39.723Z,98830.31
2022-12-25T02:23:15.484Z,98840.97
2022-12-25T02:26:18.247Z,98848.06
2022-12-25T02:28:53.698Z,98843.50
2022-12-25T02:31:43.376Z,98843.47
2022-12-25T02:34:32.896Z,98845.25
2022-12-25T02:37:18.215Z,98846.41
2022-12-25T02:39:59.432Z,98840.31
2022-12-25T02:42:55.715Z,98836.84
2022-12-25T02:45:53.373Z,98844.44
2022-12-25T02:48:42.285Z,98847.97
2022-12-25T02:51:32.490Z,98849.81
2022-12-25T02:54:20.357Z,98855.72
2022-12-25T02:57:07.732Z,98862.50
2022-12-25T02:59:57.637Z,98861.47
2022-12-25T03:02:45.705Z,98866.56
2022-12-25T03:05:53.381Z,98857.75
2022-12-25T03:08:24.548Z,98863.34
2022-12-25T03:11:21.856Z,98861.06
2022-12-25T03:13:51.557Z,98844.53
2022-12-25T03:16:42.671Z,98835.66
2022-12-25T03:19:28.152Z,98820.72
2022-12-25T03:22:14.515Z,98823.22
2022-12-25T03:25:00.330Z,98832.81
2022-12-25T03:27:30.767Z,98829.22
2022-12-25T03:30:16.308Z,98831.72
2022-12-25T03:33:23.386Z,98828.16
2022-12-25T03:36:07.784Z,98828.94
2022-12-25T03:38:50.022Z,98828.97
2022-12-25T03:42:01.605Z,98828.16
2022-12-25T03:44:53.600Z,98833.47
2022-12-25T03:47:51.756Z,98836.94
2022-12-25T03:51:06.298Z,98842.44
2022-12-25T03:54:00.214Z,98835.72
2022-12-25T03:56:47.065Z,98796.31
2022-12-25T03:59:40.415Z,98829.78
2022-12-25T04:02:28.423Z,98822.78
2022-12-25T04:05:14.053Z,98826.94
2022-12-25T04:07:59.304Z,98812.84
2022-12-25T04:10:44.408Z,98811.91
2022-12-25T04:13:29.784Z,98823.53
2022-12-25T04:16:15.132Z,98842.53
2022-12-25T04:19:00.421Z,98839.25
2022-12-25T04:21:45.741Z,98822.97
2022-12-25T04:24:30.938Z,98826.31
2022-12-25T04:27:16.206Z,98819.25
2022-12-25T04:30:01.515Z,98820.00
2022-12-25T04:32:46.616Z,98829.69
2022-12-25T04:35:32.108Z,98844.47
2022-12-25T04:37:58.988Z,98842.19
2022-12-25T04:40:25.731Z,98846.91
2022-12-25T04:42:53.290Z,98848.59
2022-12-25T04:45:20.441Z,98841.44
2022-12-25T04:47:47.051Z,98845.72
2022-12-25T04:50:13.786Z,98845.19
2022-12-25T04:52:41.956Z,98845.50
2022-12-25T04:55:10.956Z,98836.50
2022-12-25T04:57:38.317Z,98842.78
2022-12-25T05:00:06.084Z,98833.69
2022-12-25T05:02:33.357Z,98849.00
2022-12-25T05:05:00.245Z,98851.50
2022-12-25T05:07:27.046Z,98848.06
2022-12-25T05:09:53.771Z,98849.97
2022-12-25T05:12:20.497Z,98839.91
2022-12-25T05:14:47.251Z,98844.47
2022-12-25T05:17:14.047Z,98841.19
2022-12-25T05:19:40.744Z,98849.25
2022-12-25T05:22:07.512Z,98849.25
2022-12-25T05:24:34.218Z,98837.81
2022-12-25T05:27:01.021Z,98836.38
2022-12-25T05:29:27.833Z,98839.84
2022-12-25T05:31:54.558Z,98836.44
2022-12-25T05:34:21.274Z,98841.69
2022-12-25T05:36:48.056Z,98833.84
2022-12-25T05:39:14.751Z,98839.16
2022-12-25T05:41:41.460Z,98844.38
2022-12-25T05:44:08.702Z,98834.84
2022-12-25T05:46:35.287Z,98834.78
2022-12-25T05:49:02.208Z,98842.53
2022-12-25T05:51:28.901Z,98843.44
2022-12-25T05:53:55.822Z,98848.81
2022-12-25T05:56:22.665Z,98864.03
2022-12-25T05:58:49.436Z,98868.63
2022-12-25T06:01:20.476Z,98862.56
2022-12-25T06:03:48.055Z,98862.41
2022-12-25T06:06:14.995Z,98849.16
2022-12-25T06:08:41.891Z,98855.72
2022-12-25T06:11:11.039Z,98852.91
2022-12-25T06:13:37.855Z,98836.38
2022-12-25T06:16:10.125Z,98859.13
2022-12-25T06:18:41.757Z,98857.19
2022-12-25T06:21:13.599Z,98861.81
2022-12-25T06:23:41.237Z,98863.75
2022-12-25T06:26:11.055Z,98871.91
2022-12-25T06:28:37.781Z,98880.00
2022-12-25T06:31:09.347Z,98879.38
2022-12-25T06:33:36.959Z,98880.38
2022-12-25T06:36:13.960Z,98877.06
2022-12-25T06:38:41.519Z,98876.34
2022-12-25T06:41:23.033Z,98889.84
2022-12-25T06:43:51.640Z,98904.88
2022-12-25T06:46:19.344Z,98912.03
2022-12-25T06:48:50.062Z,98896.31
2022-12-25T06:51:22.145Z,98898.09
2022-12-25T06:53:50.085Z,98909.00
2022-12-25T06:56:20.135Z,98895.22
2022-12-25T06:58:51.673Z,98887.59
2022-12-25T07:01:29.037Z,98894.00
2022-12-25T07:03:59.039Z,98905.28
2022-12-25T07:06:26.365Z,98899.28
2022-12-25T07:08:52.931Z,98900.84
2022-12-25T07:11:20.664Z,98906.66
2022-12-25T07:13:47.868Z,98902.00
2022-12-25T07:16:14.751Z,98920.94
2022-12-25T07:18:42.557Z,98914.94
2022-12-25T07:21:13.617Z,98928.78
2022-12-25T07:23:40.852Z,98931.31
2022-12-25T07:26:08.273Z,98932.16
2022-12-25T07:28:35.216Z,98926.63
2022-12-25T07:31:08.063Z,98928.66
2022-12-25T07:33:34.889Z,98905.56
2022-12-25T07:36:01.884Z,98912.91
2022-12-25T07:38:29.173Z,98911.63
2022-12-25T07:40:55.920Z,98925.50
2022-12-25T07:43:23.016Z,98934.47
2022-12-25T07:45:56.425Z,98944.41
2022-12-25T07:48:23.422Z,98940.19
2022-12-25T07:50:59.355Z,98936.91
2022-12-25T07:53:27.652Z,98940.75
2022-12-25T07:56:03.079Z,98956.38
2022-12-25T07:58:30.953Z,98972.38
2022-12-25T08:01:07.294Z,98985.88
2022-12-25T08:03:35.517Z,98967.91
2022-12-25T08:06:05.558Z,98962.44
2022-12-25T08:08:33.045Z,98956.53
2022-12-25T08:11:00.330Z,98963.38
2022-12-25T08:13:30.226Z,98953.84
2022-12-25T08:15:59.235Z,98955.38
2022-12-25T08:18:29.920Z,98965.81
2022-12-25T08:21:02.227Z,98959.69
2022-12-25T08:23:28.954Z,98965.53
2022-12-25T08:26:04.437Z,98957.53
2022-12-25T08:28:33.579Z,98965.44
2022-12-25T08:31:05.417Z,98951.56
2022-12-25T08:33:32.566Z,98960.06
2022-12-25T08:36:05.471Z,98969.50
2022-12-25T08:38:32.860Z,98956.34
2022-12-25T08:40:59.388Z,98973.34
2022-12-25T08:43:26.182Z,98977.53
2022-12-25T08:45:53.033Z,98986.81
2022-12-25T08:48:19.802Z,98980.03
2022-12-25T08:50:48.049Z,98962.69
2022-12-25T08:53:15.854Z,98971.66
2022-12-25T08:55:42.646Z,98966.53
2022-12-25T08:58:10.993Z,98996.66
2022-12-25T09:00:37.799Z,99026.72
2022-12-25T09:03:04.753Z,99011.28
2022-12-25T09:05:31.611Z,99057.53
2022-12-25T09:07:58.496Z,99080.66
2022-12-25T09:10:25.272Z,99062.84
2022-12-25T09:12:51.957Z,99095.22
2022-12-25T09:15:18.933Z,99095.13
2022-12-25T09:17:45.673Z,99098.00
2022-12-25T09:20:12.480Z,99079.50
2022-12-25T09:22:39.193Z,99086.97
2022-12-25T09:25:06.143Z,99088.59
2022-12-25T09:27:32.847Z,99079.31
2022-12-25T09:29:59.549Z,99094.78
2022-12-25T09:32:26.382Z,99097.06
2022-12-25T09:34:53.070Z,99092.50
2022-12-25T09:37:19.768Z,99079.16
2022-12-25T09:39:46.757Z,99092.75
2022-12-25T09:42:22.511Z,99104.72
2022-12-25T09:44:59.152Z,99101.31
2022-12-25T09:47:31.039Z,99097.13
2022-12-25T09:50:07.816Z,99096.94
2022-12-25T09:52:43.878Z,99104.00
2022-12-25T09:55:20.629Z,99096.84
2022-12-25T09:57:55.904Z,99111.59
2022-12-25T10:00:25.167Z,99114.06
2022-12-25T10:03:10.322Z,99103.16
2022-12-25T10:06:13.296Z,99100.50
2022-12-25T10:09:02.958Z,99095.47
2022-12-25T10:11:47.978Z,99097.22
2022-12-25T10:14:25.725Z,99104.16
2022-12-25T10:16:58.273Z,99093.06
2022-12-25T10:19:47.630Z,99090.06
2022-12-25T10:22:25.723Z,99070.78
2022-12-25T10:24:56.841Z,99072.59
2022-12-25T10:27:38.120Z,99074.31
2022-12-25T10:30:15.695Z,99071.00
2022-12-25T10:32:44.832Z,99059.22
2022-12-25T10:35:18.653Z,99062.34
2022-12-25T10:37:52.966Z,99070.81
2022-12-25T10:40:38.469Z,99076.94
2022-12-25T10:43:18.422Z,99075.22
2022-12-25T10:45:47.870Z,99069.63
2022-12-25T10:48:29.346Z,99066.97
2022-12-25T10:50:56.739Z,99062.78
2022-12-25T10:53:28.184Z,99055.19
2022-12-25T10:56:04.801Z,99049.91
2022-12-25T10:58:32.499Z,99057.78
2022-12-25T11:01:07.134Z,99052.56
2022-12-25T11:03:37.244Z,99064.97
2022-12-25T11:06:05.084Z,99063.56
2022-12-25T11:08:34.687Z,99061.13
2022-12-25T11:11:06.314Z,99055.19
2022-12-25T11:13:40.382Z,99045.78
2022-12-25T11:16:14.498Z,99037.97
2022-12-25T11:18:48.840Z,99030.19
2022-12-25T11:21:17.530Z,99032.66
2022-12-25T11:23:56.375Z,99030.13
2022-12-25T11:26:23.485Z,99018.97
2022-12-25T11:28:51.396Z,99024.72
2022-12-25T11:31:21.677Z,99025.47
2022-12-25T11:33:52.457Z,99024.81
2022-12-25T11:36:25.896Z,99020.69
2022-12-25T11:38:52.906Z,99014.53
2022-12-25T11:41:23.264Z,99023.03
2022-12-25T11:43:56.044Z,99016.28
2022-12-25T11:46:41.530Z,99006.00
2022-12-25T11:49:14.696Z,99009.06
2022-12-25T11:51:45.931Z,99003.81
2022-12-25T11:54:38.222Z,98999.78
2022-12-25T11:57:07.174Z,98988.53
2022-12-25T11:59:40.267Z,98984.41
2022-12-25T12:02:36.846Z,98981.84
2022-12-25T12:05:15.148Z,98981.31
2022-12-25T12:07:52.573Z,98975.88
2022-12-25T12:10:47.878Z,98984.00
2022-12-25T12:13:29.545Z,98985.16
2022-12-25T12:15:57.733Z,98986.38
2022-12-25T12:18:27.475Z,98978.09
2022-12-25T12:21:18.653Z,98983.38
2022-12-25T12:24:04.713Z,98987.13
2022-12-25T12:26:38.198Z,98993.91
2022-12-25T12:29:08.750Z,98991.72
2022-12-25T12:31:42.461Z,98988.56
2022-12-25T12:34:33.106Z,98992.03
2022-12-25T12:37:05.157Z,98984.66
2022-12-25T12:39:40.631Z,98974.78
2022-12-25T12:42:18.061Z,98960.59
2022-12-25T12:44:46.303Z,98948.00
2022-12-25T12:47:38.637Z,98947.50
2022-12-25T12:50:06.838Z,98943.22
2022-12-25T12:52:38.169Z,98958.94
2022-12-25T12:55:14.388Z,98968.75
2022-12-25T12:57:42.907Z,98979.41
2022-12-25T13:00:17.042Z,98986.41
2022-12-25T13:02:43.752Z,98991.53
2022-12-25T13:05:34.013Z,98988.13
2022-12-25T13:08:16.498Z,98983.88
2022-12-25T13:10:52.850Z,98973.31
2022-12-25T13:13:27.819Z,98962.63
2022-12-25T13:15:56.086Z,98966.91
2022-12-25T13:18:22.812Z,98968.13
2022-12-25T13:21:04.965Z,98973.34
2022-12-25T13:23:37.820Z,98978.03
2022-12-25T13:26:17.320Z,98983.47
2022-12-25T13:28:46.749Z,98974.03
2022-12-25T13:31:13.628Z,98970.28
2022-12-25T13:33:41.245Z,98962.63
2022-12-25T13:36:13.588Z,98961.59
2022-12-25T13:38:46.244Z,98961.56
2022-12-25T13:41:37.437Z,98959.41
2022-12-25T13:44:17.134Z,98949.00
2022-12-25T13:46:44.591Z,98959.16
2022-12-25T13:49:15.649Z,98959.78
2022-12-25T13:51:42.666Z,98953.25
2022-12-25T13:54:13.196Z,98939.16
2022-12-25T13:56:55.409Z,98948.56
2022-12-25T13:59:24.932Z,98949.63
2022-12-25T14:01:54.156Z,98947.16
2022-12-25T14:04:24.582Z,98949.59
2022-12-25T14:06:52.744Z,98958.78
2022-12-25T14:09:20.480Z,98956.97
2022-12-25T14:11:51.329Z,98960.81
2022-12-25T14:14:23.452Z,98959.44
2022-12-25T14:16:53.604Z,98960.97
2022-12-25T14:19:33.023Z,98947.44
2022-12-25T14:22:22.671Z,98946.84
2022-12-25T14:24:49.805Z,98934.19
2022-12-25T14:27:26.564Z,98934.94
2022-12-25T14:29:56.901Z,98924.22
2022-12-25T14:32:27.618Z,98915.47
2022-12-25T14:34:58.728Z,98915.69
2022-12-25T14:37:31.410Z,98920.34
2022-12-25T14:39:59.928Z,98925.41
2022-12-25T14:42:32.468Z,98914.69
2022-12-25T14:45:24.766Z,98919.78
2022-12-25T14:47:53.764Z,98924.03
2022-12-25T14:50:32.168Z,98922.63
2022-12-25T14:52:59.708Z,98914.06
2022-12-25T14:55:28.987Z,98918.22
2022-12-25T14:58:05.333Z,98915.38
2022-12-25T15:00:35.501Z,98930.88
2022-12-25T15:03:05.909Z,98929.06
2022-12-25T15:05:38.304Z,98931.34
2022-12-25T15:08:13.875Z,98936.56
2022-12-25T15:13:29.340Z,98920.69
2022-12-25T15:16:02.497Z,98924.19
2022-12-25T15:18:39.993Z,98920.84
2022-12-25T15:21:11.402Z,98917.44
2022-12-25T15:23:38.144Z,98930.81
2022-12-25T15:26:04.956Z,98932.53
2022-12-25T15:28:32.450Z,98922.13
2022-12-25T15:30:59.254Z,98914.09
2022-12-25T15:33:25.997Z,98925.91
2022-12-25T15:35:52.717Z,98925.63
2022-12-25T15:38:19.434Z,98914.81
2022-12-25T15:40:47.202Z,98919.13
2022-12-25T15:46:04.532Z,98921.81
2022-12-25T15:48:31.309Z,98916.34
2022-12-25T15:50:58.090Z,98917.91
2022-12-25T15:53:26.442Z,98900.34
2022-12-25T15:55:53.201Z,98901.09
2022-12-25T15:58:19.919Z,98904.72
2022-12-25T16:00:46.750Z,98915.31
2022-12-25T16:03:13.533Z,98924.44
2022-12-25T16:05:40.387Z,98915.50
2022-12-25T16:08:07.204Z,98916.16
2022-12-25T16:10:38.634Z,98913.97
2022-12-25T16:13:05.595Z,98895.81
2022-12-25T16:15:32.515Z,98878.19
2022-12-25T16:17:59.246Z,98868.31
2022-12-25T16:20:25.985Z,98868.66
2022-12-25T16:22:52.683Z,98872.31
2022-12-25T16:25:20.201Z,98877.72
2022-12-25T16:27:47.492Z,98871.97
2022-12-25T16:30:16.143Z,98872.25
2022-12-25T16:32:44.192Z,98860.88
2022-12-25T16:35:11.913Z,98852.47
2022-12-25T16:37:39.978Z,98840.66
2022-12-25T16:40:10.458Z,98858.38
2022-12-25T16:42:38.347Z,98862.94
2022-12-25T16:45:05.857Z,98856.16
2022-12-25T16:47:32.640Z,98856.53
2022-12-25T16:49:59.450Z,98869.81
2022-12-25T16:52:26.354Z,98852.16
2022-12-25T16:54:53.117Z,98849.03
2022-12-25T16:57:19.839Z,98839.44
2022-12-25T16:59:46.788Z,98829.78
2022-12-25T17:02:17.072Z,98844.28
2022-12-25T17:04:45.029Z,98846.66
2022-12-25T17:07:13.064Z,98848.09
2022-12-25T17:09:44.120Z,98849.56
2022-12-25T17:12:11.385Z,98849.94
2022-12-25T17:14:38.303Z,98840.38
2022-12-25T17:17:05.052Z,98851.53
2022-12-25T17:19:31.951Z,98852.31
2022-12-25T17:21:59.903Z,98839.72
2022-12-25T17:24:27.923Z,98808.53
2022-12-25T17:26:54.731Z,98767.47
2022-12-25T17:29:22.696Z,98799.00
2022-12-25T17:31:50.275Z,98784.25
2022-12-25T17:34:17.099Z,98791.47
2022-12-25T17:36:43.993Z,98792.84
2022-12-25T17:39:11.249Z,98808.28
2022-12-25T17:41:37.869Z,98801.88
2022-12-25T17:44:04.852Z,98801.16
2022-12-25T17:46:32.486Z,98786.13
2022-12-25T17:49:01.130Z,98766.25
2022-12-25T17:51:30.184Z,98772.03
2022-12-25T17:54:00.559Z,98781.78
2022-12-25T17:56:27.313Z,98792.19
2022-12-25T17:58:57.082Z,98792.25
2022-12-25T18:01:25.524Z,98778.97
2022-12-25T18:03:52.467Z,98770.88
2022-12-25T18:06:21.573Z,98771.69
2022-12-25T18:08:49.171Z,98808.44
2022-12-25T18:11:21.953Z,98810.69
2022-12-25T18:13:52.328Z,98801.53
2022-12-25T18:16:24.554Z,98798.06
2022-12-25T18:18:53.004Z,98813.06
2022-12-25T18:21:22.137Z,98805.47
2022-12-25T18:23:49.734Z,98826.16
2022-12-25T18:26:18.281Z,98810.88
2022-12-25T18:28:45.574Z,98794.13
2022-12-25T18:31:20.208Z,98794.19
2022-12-25T18:33:48.253Z,98800.38
2022-12-25T18:36:17.936Z,98800.66
2022-12-25T18:38:45.237Z,98796.34
2022-12-25T18:41:12.341Z,98784.78
2022-12-25T18:43:52.778Z,98799.91
2022-12-25T18:46:25.541Z,98800.03
2022-12-25T18:48:56.542Z,98794.91
2022-12-25T18:51:23.884Z,98787.78
2022-12-25T18:53:51.353Z,98774.34
2022-12-25T18:56:20.205Z,98777.56
2022-12-25T18:58:47.279Z,98772.47
2022-12-25T19:01:19.618Z,98761.84
2022-12-25T19:03:49.035Z,98751.94
2022-12-25T19:06:22.700Z,98740.88
2022-12-25T19:08:49.699Z,98733.44
2022-12-25T19:11:17.897Z,98749.38
2022-12-25T19:13:45.517Z,98762.19
2022-12-25T19:16:12.929Z,98752.03
2022-12-25T19:18:40.472Z,98758.59
2022-12-25T19:21:09.012Z,98750.78
2022-12-25T19:23:37.602Z,98759.06
2022-12-25T19:26:08.849Z,98756.78
2022-12-25T19:28:36.583Z,98748.91
2022-12-25T19:31:07.468Z,98756.75
2022-12-25T19:33:36.155Z,98756.94
2022-12-25T19:36:07.215Z,98753.53
2022-12-25T19:38:34.307Z,98746.63
2022-12-25T19:41:05.562Z,98762.41
2022-12-25T19:43:35.603Z,98765.63
2022-12-25T19:46:02.827Z,98773.50
2022-12-25T19:48:30.523Z,98761.41
2022-12-25T19:50:57.647Z,98764.09
2022-12-25T19:53:25.184Z,98765.13
2022-12-25T19:55:52.924Z,98764.59
2022-12-25T19:58:20.877Z,98764.09
2022-12-25T20:01:01.464Z,98749.50
2022-12-25T20:03:28.464Z,98737.34
2022-12-25T20:05:55.311Z,98728.47
2022-12-25T20:08:22.320Z,98713.59
2022-12-25T20:10:49.610Z,98720.50
2022-12-25T20:13:16.604Z,98727.56
2022-12-25T20:15:43.574Z,98736.13
2022-12-25T20:18:10.256Z,98724.97
2022-12-25T20:20:36.997Z,98739.84
2022-12-25T20:23:03.999Z,98748.72
2022-12-25T20:25:30.835Z,98743.69
2022-12-25T20:27:58.083Z,98749.28
2022-12-25T20:30:24.643Z,98741.63
2022-12-25T20:32:51.353Z,98756.75
2022-12-25T20:35:18.172Z,98744.84
2022-12-25T20:37:45.012Z,98724.31
2022-12-25T20:40:13.118Z,98717.97
2022-12-25T20:42:39.868Z,98715.94
2022-12-25T20:45:07.772Z,98704.34
2022-12-25T20:47:35.297Z,98669.88
2022-12-25T20:50:02.336Z,98704.28
2022-12-25T20:52:29.090Z,98711.31
2022-12-25T20:54:55.936Z,98704.69
2022-12-25T20:57:22.743Z,98718.72
2022-12-25T20:59:49.621Z,98719.09
2022-12-25T21:02:34.324Z,98708.25
2022-12-25T21:05:07.123Z,98692.59
2022-12-25T21:07:34.275Z,98697.78
2022-12-25T21:10:00.967Z,98720.34
2022-12-25T21:12:27.684Z,98718.34
2022-12-25T21:14:54.412Z,98703.50
2022-12-25T21:17:21.195Z,98693.25
2022-12-25T21:19:48.395Z,98698.25
2022-12-25T21:22:15.452Z,98691.06
2022-12-25T21:24:42.257Z,98704.19
2022-12-25T21:27:09.144Z,98691.00
2022-12-25T21:29:36.019Z,98687.22
2022-12-25T21:32:21.621Z,98689.47
2022-12-25T21:34:48.444Z,98677.28
2022-12-25T21:37:17.296Z,98675.06
2022-12-25T21:39:45.109Z,98672.69
2022-12-25T21:42:12.391Z,98674.41
2022-12-25T21:44:38.952Z,98689.47
2022-12-25T21:47:06.067Z,98685.19
2022-12-25T21:49:51.725Z,98679.91
2022-12-25T21:52:19.235Z,98682.34
2022-12-25T21:54:46.677Z,98678.72
2022-12-25T21:57:14.068Z,98670.78
2022-12-25T21:59:40.677Z,98681.06
2022-12-25T22:02:11.546Z,98681.72
2022-12-25T22:04:39.112Z,98686.72
2022-12-25T22:07:17.656Z,98703.34
2022-12-25T22:09:46.369Z,98694.00
2022-12-25T22:12:44.744Z,98694.00
2022-12-25T22:15:12.033Z,98702.94
2022-12-25T22:17:59.029Z,98703.09
2022-12-25T22:20:35.597Z,98696.06
2022-12-25T22:23:02.882Z,98696.84
2022-12-25T22:25:29.746Z,98690.56
2022-12-25T22:27:57.787Z,98672.31
2022-12-25T22:30:27.445Z,98663.47
2022-12-25T22:32:54.246Z,98668.09
2022-12-25T22:35:21.394Z,98680.50
2022-12-25T22:37:49.600Z,98672.16
2022-12-25T22:40:19.244Z,98674.00
2022-12-25T22:42:46.798Z,98661.13
2022-12-25T22:45:14.216Z,98669.03
2022-12-25T22:47:41.185Z,98671.84
2022-12-25T22:50:08.665Z,98675.50
2022-12-25T22:52:36.612Z,98670.16
2022-12-25T22:55:04.619Z,98666.00
2022-12-25T22:57:31.345Z,98669.31
2022-12-25T22:59:58.272Z,98673.69
2022-12-25T23:02:25.161Z,98668.19
2022-12-25T23:04:53.023Z,98663.66
2022-12-25T23:07:19.774Z,98660.16
2022-12-25T23:09:46.634Z,98661.00
2022-12-25T23:12:33.358Z,98653.13
2022-12-25T23:15:00.238Z,98654.88
2022-12-25T23:17:45.800Z,98659.13
2022-12-25T23:20:33.009Z,98662.59
2022-12-25T23:23:18.367Z,98660.00
2022-12-25T23:26:03.625Z,98662.13
2022-12-25T23:28:48.879Z,98668.66
2022-12-25T23:31:15.678Z,98667.97
2022-12-25T23:33:42.412Z,98661.94
2022-12-25T23:36:09.329Z,98649.69
2022-12-25T23:38:36.054Z,98653.06
2022-12-25T23:41:02.855Z,98658.34
2022-12-25T23:43:29.673Z,98657.38
2022-12-25T23:45:56.385Z,98659.25
2022-12-25T23:48:23.166Z,98653.91
2022-12-25T23:50:49.849Z,98655.66
2022-12-25T23:53:16.599Z,98652.16
2022-12-25T23:55:43.497Z,98658.28
2022-12-25T23:58:10.594Z,98649.75
